Time;durP1;ratioP1;P1;durP2;ratioP2;P2;SDS_P1;SDS_P2;PMS_P1;PMS_P2;Temp;Humidity;BMP_temperature;BMP_pressure;BME280_temperature;BME280_humidity;BME280_pressure;Samples;Min_cycle;Max_cycle;Signal;HPM_P1;HPM_P2
2022/11/30 00:01:17;;;;;;;46.60;25.35;;;5.30;99.90;;;;;;4978552;28;20042;-77
2022/11/30 00:03:43;;;;;;;50.00;25.67;;;5.30;99.90;;;;;;4977721;28;20141;-76
2022/11/30 00:06:12;;;;;;;50.17;26.35;;;5.20;99.90;;;;;;4993862;28;20117;-76
2022/11/30 00:08:38;;;;;;;48.97;25.20;;;5.20;99.90;;;;;;4977727;28;20391;-76
2022/11/30 00:11:11;;;;;;;43.63;25.50;;;5.10;99.90;;;;;;4978523;28;20038;-76
2022/11/30 00:13:37;;;;;;;40.55;23.83;;;5.00;99.90;;;;;;4978518;28;20046;-76
2022/11/30 00:16:03;;;;;;;39.28;23.90;;;4.90;99.90;;;;;;4978228;28;20092;-76
2022/11/30 00:18:29;;;;;;;49.15;28.92;;;4.80;99.90;;;;;;4976776;28;20116;-76
2022/11/30 00:20:57;;;;;;;52.53;24.67;;;4.80;99.90;;;;;;4977362;28;20153;-77
2022/11/30 00:23:23;;;;;;;47.30;26.40;;;4.70;99.90;;;;;;4982436;28;20124;-76
2022/11/30 00:25:48;;;;;;;107.13;27.85;;;4.60;99.90;;;;;;4978300;28;20117;-76
2022/11/30 00:28:14;;;;;;;46.70;21.77;;;4.60;99.90;;;;;;4986636;28;20038;-77
2022/11/30 00:30:39;;;;;;;167.77;24.73;;;4.50;99.90;;;;;;4993679;28;20042;-78
2022/11/30 00:33:05;;;;;;;162.95;21.75;;;4.40;99.90;;;;;;4977409;28;20038;-76
2022/11/30 00:35:31;;;;;;;178.30;22.50;;;4.30;99.90;;;;;;4994255;28;20399;-76
2022/11/30 00:37:56;;;;;;;263.45;27.52;;;4.20;99.90;;;;;;4993175;28;20124;-77
2022/11/30 00:40:22;;;;;;;135.35;17.70;;;4.20;99.90;;;;;;4993713;28;20033;-77
2022/11/30 00:42:48;;;;;;;141.95;16.90;;;4.10;99.90;;;;;;4993246;28;20072;-76
2022/11/30 00:45:13;;;;;;;147.52;20.10;;;4.00;99.90;;;;;;4977821;28;20397;-76
2022/11/30 00:47:39;;;;;;;329.05;44.58;;;3.90;99.90;;;;;;4974057;28;20044;-76
2022/11/30 00:50:05;;;;;;;120.07;27.50;;;3.90;99.90;;;;;;4998154;28;20504;-77
2022/11/30 00:52:30;;;;;;;212.63;38.17;;;3.90;99.90;;;;;;4977842;28;20049;-77
2022/11/30 00:54:56;;;;;;;161.90;32.97;;;3.90;99.90;;;;;;4981866;28;20046;-78
2022/11/30 00:57:22;;;;;;;126.60;37.05;;;3.90;99.90;;;;;;4996788;28;20040;-78
2022/11/30 00:59:47;;;;;;;87.55;32.47;;;4.00;99.90;;;;;;4998137;28;20042;-77
2022/11/30 01:02:14;;;;;;;126.32;39.58;;;4.00;99.90;;;;;;4997012;28;20416;-76
2022/11/30 01:04:39;;;;;;;113.63;38.72;;;4.00;99.90;;;;;;4981150;28;20034;-76
2022/11/30 01:07:05;;;;;;;103.93;36.72;;;4.00;99.90;;;;;;4981261;28;20554;-76
2022/11/30 01:09:30;;;;;;;69.85;34.42;;;4.00;99.90;;;;;;4996621;28;20042;-76
2022/11/30 01:11:56;;;;;;;109.18;36.65;;;4.00;99.90;;;;;;4997726;28;20041;-76
2022/11/30 01:14:21;;;;;;;84.30;35.65;;;4.00;99.90;;;;;;4981639;28;20045;-76
2022/11/30 01:16:47;;;;;;;97.38;36.13;;;4.00;99.90;;;;;;4988652;28;20385;-76
2022/11/30 01:19:12;;;;;;;141.85;38.47;;;3.90;99.90;;;;;;4977421;28;20038;-76
2022/11/30 01:21:38;;;;;;;110.78;33.63;;;3.90;99.90;;;;;;4962138;28;20042;-76
2022/11/30 01:24:04;;;;;;;100.82;33.55;;;3.90;99.90;;;;;;4969542;28;20034;-76
2022/11/30 01:26:30;;;;;;;59.28;29.38;;;3.80;99.90;;;;;;4978357;28;20038;-76
2022/11/30 01:28:55;;;;;;;121.68;32.83;;;3.70;99.90;;;;;;5002060;28;20137;-77
2022/11/30 01:31:23;;;;;;;110.45;34.13;;;3.70;99.90;;;;;;4997431;28;20041;-76
2022/11/30 01:33:50;;;;;;;80.57;30.63;;;3.70;99.90;;;;;;4977829;28;20038;-76
2022/11/30 01:36:18;;;;;;;108.45;35.50;;;3.60;99.90;;;;;;5009274;28;20034;-76
2022/11/30 01:38:47;;;;;;;119.25;35.55;;;3.50;99.90;;;;;;4996320;28;20069;-76
2022/11/30 01:41:16;;;;;;;90.60;35.80;;;3.50;99.90;;;;;;4994968;28;20038;-76
2022/11/30 01:44:16;;;;;;;76.45;34.90;;;3.50;99.90;;;;;;4994423;28;20068;-77
2022/11/30 01:46:46;;;;;;;95.95;38.33;;;3.50;99.90;;;;;;4972573;28;20046;-76
2022/11/30 01:49:26;;;;;;;109.13;40.17;;;3.60;99.90;;;;;;4974303;28;20054;-78
2022/11/30 01:52:03;;;;;;;98.07;40.03;;;3.70;99.90;;;;;;4977759;28;20050;-77
2022/11/30 01:54:37;;;;;;;104.97;41.17;;;3.70;99.90;;;;;;4990697;28;20041;-76
2022/11/30 01:57:25;;;;;;;85.28;39.35;;;3.80;99.90;;;;;;4995763;28;20538;-76
2022/11/30 01:59:53;;;;;;;100.95;40.95;;;3.90;99.90;;;;;;4986143;28;20132;-76
2022/11/30 02:02:23;;;;;;;99.70;42.08;;;3.90;99.90;;;;;;4961548;28;20185;-76
2022/11/30 02:04:49;;;;;;;126.25;45.38;;;4.00;99.90;;;;;;4977092;28;20069;-76
2022/11/30 02:07:15;;;;;;;95.80;42.53;;;4.10;99.90;;;;;;4980265;28;20128;-76
2022/11/30 02:09:44;;;;;;;78.30;40.22;;;4.10;99.90;;;;;;4979243;28;20034;-76
2022/11/30 02:12:47;;;;;;;96.13;42.47;;;4.20;99.90;;;;;;4996863;28;20042;-76
2022/11/30 02:15:18;;;;;;;116.43;43.65;;;4.30;99.90;;;;;;4973200;28;20045;-76
2022/11/30 02:18:11;;;;;;;118.40;44.47;;;4.40;99.90;;;;;;4996461;28;20168;-76
2022/11/30 02:21:09;;;;;;;79.25;41.78;;;4.40;99.90;;;;;;4979014;28;20063;-78
2022/11/30 02:24:03;;;;;;;89.15;43.25;;;4.50;99.90;;;;;;4939665;28;20058;-78
2022/11/30 02:26:57;;;;;;;111.20;42.40;;;4.60;99.90;;;;;;4980329;28;20475;-76
2022/11/30 02:29:33;;;;;;;129.85;44.42;;;4.70;99.90;;;;;;4980212;28;20561;-76
2022/11/30 02:32:11;;;;;;;92.45;41.95;;;4.70;99.90;;;;;;4995536;28;20034;-78
2022/11/30 02:34:40;;;;;;;127.40;44.85;;;4.70;99.90;;;;;;4994615;28;20044;-76
2022/11/30 02:37:08;;;;;;;107.88;42.75;;;4.70;99.90;;;;;;4979209;28;20042;-77
2022/11/30 02:39:34;;;;;;;124.18;42.20;;;4.70;99.90;;;;;;4996097;28;20120;-76
2022/11/30 02:41:59;;;;;;;142.30;45.03;;;4.80;99.90;;;;;;4996093;28;20688;-76
2022/11/30 02:44:27;;;;;;;107.13;41.20;;;4.80;99.90;;;;;;4978440;28;20117;-76
2022/11/30 02:47:03;;;;;;;105.32;41.53;;;4.80;99.90;;;;;;4995374;28;20034;-76
2022/11/30 02:49:45;;;;;;;130.40;43.08;;;4.80;99.90;;;;;;4996346;28;20492;-76
2022/11/30 02:52:13;;;;;;;132.90;42.10;;;4.80;99.90;;;;;;4995233;28;20440;-76
2022/11/30 02:54:39;;;;;;;96.35;41.33;;;4.90;99.90;;;;;;4994116;28;20362;-76
2022/11/30 02:57:04;;;;;;;116.28;43.90;;;4.90;99.90;;;;;;4987357;28;20408;-76
2022/11/30 02:59:30;;;;;;;91.50;40.88;;;4.90;99.90;;;;;;4979612;28;20086;-77
2022/11/30 03:01:56;;;;;;;128.35;43.97;;;4.90;99.90;;;;;;4974117;28;20500;-76
2022/11/30 03:04:21;;;;;;;128.15;44.28;;;5.00;99.90;;;;;;4991553;28;20512;-76
2022/11/30 03:06:47;;;;;;;78.95;40.78;;;5.00;99.90;;;;;;4986881;28;20034;-77
2022/11/30 03:09:13;;;;;;;91.43;39.33;;;5.00;99.90;;;;;;4977846;28;20037;-76
2022/11/30 03:11:39;;;;;;;85.63;39.85;;;5.00;99.90;;;;;;4994806;28;20563;-76
2022/11/30 03:14:04;;;;;;;98.50;40.70;;;5.00;99.90;;;;;;4979546;28;20550;-76
2022/11/30 03:16:30;;;;;;;90.32;40.53;;;5.10;99.90;;;;;;4979495;28;20042;-77
2022/11/30 03:18:57;;;;;;;114.90;40.75;;;5.00;99.90;;;;;;4977684;28;20037;-76
2022/11/30 03:21:23;;;;;;;99.65;39.63;;;5.10;99.90;;;;;;4995630;28;20040;-76
2022/11/30 03:23:48;;;;;;;135.57;40.45;;;5.10;99.90;;;;;;4979138;28;20038;-76
2022/11/30 03:26:14;;;;;;;155.23;40.63;;;5.00;99.90;;;;;;4973576;28;20033;-76
2022/11/30 03:28:40;;;;;;;89.30;38.13;;;5.00;99.90;;;;;;4975550;28;20504;-76
2022/11/30 03:31:05;;;;;;;113.45;36.22;;;5.00;99.90;;;;;;4991765;28;20065;-76
2022/11/30 03:33:31;;;;;;;119.45;39.35;;;4.90;99.90;;;;;;4985463;28;20034;-76
2022/11/30 03:36:07;;;;;;;99.35;36.72;;;4.90;99.90;;;;;;4978873;28;20488;-77
2022/11/30 03:38:33;;;;;;;96.57;37.55;;;4.90;99.90;;;;;;4994192;28;20100;-76
2022/11/30 03:41:09;;;;;;;73.60;36.03;;;4.80;99.90;;;;;;4994089;28;20112;-76
2022/11/30 03:43:35;;;;;;;106.32;35.70;;;4.80;99.90;;;;;;4991651;28;20034;-76
2022/11/30 03:46:00;;;;;;;88.88;34.65;;;4.70;99.90;;;;;;4987845;28;20429;-76
2022/11/30 03:48:26;;;;;;;108.63;36.33;;;4.70;99.90;;;;;;4994068;28;20123;-76
2022/11/30 03:50:51;;;;;;;271.25;43.78;;;4.60;99.90;;;;;;4978610;28;20060;-76
2022/11/30 03:53:18;;;;;;;64.88;31.83;;;4.50;99.90;;;;;;4994025;28;20061;-76
2022/11/30 03:55:44;;;;;;;400.45;48.95;;;4.50;99.90;;;;;;4978302;28;20064;-76
2022/11/30 03:58:10;;;;;;;257.35;35.85;;;4.40;99.90;;;;;;4979230;28;20543;-77
2022/11/30 04:00:36;;;;;;;104.10;27.95;;;4.40;99.90;;;;;;4993263;28;20076;-77
2022/11/30 04:03:02;;;;;;;80.38;28.30;;;4.30;99.90;;;;;;4994528;28;20065;-78
2022/11/30 04:05:27;;;;;;;106.50;31.08;;;4.20;99.90;;;;;;4994927;28;20038;-78
2022/11/30 04:07:53;;;;;;;134.55;33.85;;;4.10;99.90;;;;;;4989176;28;20042;-77
2022/11/30 04:10:19;;;;;;;121.55;29.55;;;4.10;99.90;;;;;;4989421;28;20044;-77
2022/11/30 04:12:44;;;;;;;212.25;34.13;;;4.00;99.90;;;;;;4982304;28;20104;-77
2022/11/30 04:15:10;;;;;;;134.82;32.05;;;4.00;99.90;;;;;;4994383;28;20045;-78
2022/11/30 04:17:36;;;;;;;69.50;27.17;;;4.00;99.90;;;;;;4978105;28;20076;-77
2022/11/30 04:20:02;;;;;;;119.72;32.28;;;4.00;99.90;;;;;;4972124;28;20035;-77
2022/11/30 04:22:28;;;;;;;95.10;31.88;;;4.00;99.90;;;;;;4990119;28;20080;-78
2022/11/30 04:24:54;;;;;;;99.80;32.88;;;4.00;99.90;;;;;;4994356;28;20073;-77
2022/11/30 04:27:19;;;;;;;61.30;27.13;;;3.90;99.90;;;;;;4985671;28;20034;-77
2022/11/30 04:29:45;;;;;;;113.57;34.17;;;3.90;99.90;;;;;;4990324;28;20030;-77
2022/11/30 04:32:10;;;;;;;65.63;31.75;;;3.90;99.90;;;;;;4988796;28;20115;-78
2022/11/30 04:34:36;;;;;;;114.18;38.83;;;3.80;99.90;;;;;;4994180;28;20493;-77
2022/11/30 04:37:01;;;;;;;104.03;38.95;;;3.80;99.90;;;;;;4981554;28;20038;-77
2022/11/30 04:39:27;;;;;;;153.80;44.03;;;3.90;99.90;;;;;;4972932;28;20476;-77
2022/11/30 04:41:53;;;;;;;105.60;40.42;;;3.90;99.90;;;;;;4994038;28;20033;-78
2022/11/30 04:44:18;;;;;;;119.03;44.25;;;4.00;99.90;;;;;;4978071;28;20038;-77
2022/11/30 04:46:44;;;;;;;109.63;45.03;;;4.00;99.90;;;;;;4994544;28;20057;-77
2022/11/30 04:49:09;;;;;;;114.97;44.50;;;4.10;99.90;;;;;;4992570;28;20045;-77
2022/11/30 04:51:35;;;;;;;146.68;43.80;;;4.10;99.90;;;;;;4992729;28;20505;-77
2022/11/30 04:54:01;;;;;;;146.98;45.35;;;4.20;99.90;;;;;;4994172;28;20042;-77
2022/11/30 04:56:26;;;;;;;135.30;43.65;;;4.20;99.90;;;;;;4993867;28;20048;-77
2022/11/30 04:58:52;;;;;;;124.90;41.75;;;4.20;99.90;;;;;;4992432;28;20489;-77
2022/11/30 05:01:17;;;;;;;119.07;43.05;;;4.20;99.90;;;;;;4993432;28;20041;-77
2022/11/30 05:03:43;;;;;;;139.98;42.10;;;4.30;99.90;;;;;;4992788;28;20045;-77
2022/11/30 05:06:08;;;;;;;176.43;46.28;;;4.30;99.90;;;;;;4970602;28;20035;-78
2022/11/30 05:08:34;;;;;;;103.40;37.95;;;4.30;99.90;;;;;;4975320;28;20033;-78
2022/11/30 05:10:59;;;;;;;137.15;42.78;;;4.30;99.90;;;;;;4991998;28;20048;-77
2022/11/30 05:13:25;;;;;;;139.20;40.88;;;4.40;99.90;;;;;;4977899;28;20061;-77
2022/11/30 05:15:52;;;;;;;112.03;38.53;;;4.40;99.90;;;;;;4977172;28;20049;-78
2022/11/30 05:18:18;;;;;;;148.15;44.53;;;4.50;99.90;;;;;;4985530;28;20045;-77
2022/11/30 05:20:49;;;;;;;112.18;39.33;;;4.50;99.90;;;;;;4991967;28;20038;-78
2022/11/30 05:23:15;;;;;;;150.75;44.67;;;4.50;99.90;;;;;;4991622;28;20042;-77
2022/11/30 05:25:41;;;;;;;139.25;44.13;;;4.60;99.90;;;;;;4977494;28;20076;-77
2022/11/30 05:28:07;;;;;;;122.00;43.92;;;4.60;99.90;;;;;;4977523;28;20069;-77
2022/11/30 05:30:32;;;;;;;133.32;41.95;;;4.60;99.90;;;;;;4978769;28;20084;-77
2022/11/30 05:32:58;;;;;;;181.23;46.97;;;4.60;99.90;;;;;;4995599;28;20038;-78
2022/11/30 05:35:24;;;;;;;122.07;44.72;;;4.70;99.90;;;;;;4989133;28;20038;-77
2022/11/30 05:37:49;;;;;;;176.27;47.42;;;4.70;99.90;;;;;;4976505;28;20057;-77
2022/11/30 05:40:15;;;;;;;152.25;45.97;;;4.70;99.90;;;;;;4977100;28;20120;-77
2022/11/30 05:42:40;;;;;;;116.95;42.38;;;4.80;99.90;;;;;;4980131;28;20515;-77
2022/11/30 05:45:06;;;;;;;173.95;46.22;;;4.80;99.90;;;;;;4980954;28;20204;-77
2022/11/30 05:47:32;;;;;;;128.02;45.40;;;4.80;99.90;;;;;;4979655;28;20397;-77
2022/11/30 05:49:58;;;;;;;130.13;43.65;;;4.80;99.90;;;;;;4997206;28;20102;-77
2022/11/30 05:52:23;;;;;;;134.27;44.60;;;4.80;99.90;;;;;;4996057;28;20042;-77
2022/11/30 05:54:49;;;;;;;162.32;45.90;;;4.90;99.90;;;;;;4977802;28;20255;-77
2022/11/30 05:57:15;;;;;;;115.95;43.50;;;4.90;99.90;;;;;;4961831;28;20100;-77
2022/11/30 05:59:40;;;;;;;198.43;46.08;;;4.90;99.90;;;;;;4994276;28;20374;-77
2022/11/30 06:02:06;;;;;;;160.65;44.42;;;4.90;99.90;;;;;;4994662;28;20050;-77
2022/11/30 06:04:32;;;;;;;112.25;43.35;;;4.90;99.90;;;;;;4994304;28;20040;-77
2022/11/30 06:06:58;;;;;;;128.30;44.95;;;4.90;99.90;;;;;;4989770;28;20366;-77
2022/11/30 06:09:24;;;;;;;156.40;45.35;;;5.00;99.90;;;;;;4976233;28;20036;-77
2022/11/30 06:11:50;;;;;;;116.70;45.75;;;5.00;99.90;;;;;;4996016;28;20053;-78
2022/11/30 06:14:15;;;;;;;152.55;47.35;;;5.00;99.90;;;;;;4987761;28;20037;-78
2022/11/30 06:16:41;;;;;;;108.57;45.63;;;5.00;99.90;;;;;;4991910;28;20034;-77
2022/11/30 06:19:07;;;;;;;122.07;44.42;;;5.00;99.90;;;;;;4995349;28;20456;-77
2022/11/30 06:21:32;;;;;;;105.40;43.05;;;5.10;99.90;;;;;;4994200;28;20069;-77
2022/11/30 06:23:58;;;;;;;106.32;44.53;;;5.10;99.90;;;;;;4979071;28;20065;-77
2022/11/30 06:26:24;;;;;;;88.47;41.17;;;5.10;99.90;;;;;;4993704;28;20388;-77
2022/11/30 06:28:49;;;;;;;163.30;46.90;;;5.10;99.90;;;;;;4975026;28;20034;-77
2022/11/30 06:31:15;;;;;;;102.72;42.65;;;5.10;99.90;;;;;;4978177;28;20030;-77
2022/11/30 06:33:41;;;;;;;92.47;40.00;;;5.10;99.90;;;;;;4994245;28;20038;-77
2022/11/30 06:36:07;;;;;;;134.50;41.00;;;5.10;99.90;;;;;;4994456;28;20095;-77
2022/11/30 06:38:33;;;;;;;137.82;44.60;;;5.10;99.90;;;;;;4986843;28;20049;-77
2022/11/30 06:41:07;;;;;;;108.00;40.00;;;5.10;99.90;;;;;;4977718;28;20050;-77
2022/11/30 06:43:37;;;;;;;90.05;41.58;;;5.10;99.90;;;;;;4992210;28;20040;-77
2022/11/30 06:46:03;;;;;;;104.13;41.75;;;5.00;99.90;;;;;;4977878;28;20033;-77
2022/11/30 06:48:29;;;;;;;92.28;42.00;;;5.10;99.90;;;;;;4994118;28;20049;-77
2022/11/30 06:50:55;;;;;;;104.97;42.08;;;5.10;99.90;;;;;;4974753;28;20034;-77
2022/11/30 06:53:20;;;;;;;128.02;42.83;;;5.10;99.90;;;;;;4986746;28;20045;-77
2022/11/30 06:55:46;;;;;;;108.28;44.13;;;5.00;99.90;;;;;;4957044;28;1085195;-77
2022/11/30 06:58:11;;;;;;;92.10;43.78;;;5.10;99.90;;;;;;4978825;28;20388;-77
2022/11/30 07:00:37;;;;;;;127.78;45.47;;;5.10;99.90;;;;;;4994705;28;20072;-77
2022/11/30 07:03:04;;;;;;;102.22;44.58;;;5.10;99.90;;;;;;4995450;28;20045;-77
2022/11/30 07:05:33;;;;;;;108.22;45.20;;;5.10;99.90;;;;;;4979772;28;20128;-77
2022/11/30 07:07:59;;;;;;;119.55;43.47;;;5.10;99.90;;;;;;4991134;28;20539;-77
2022/11/30 07:10:25;;;;;;;130.75;44.97;;;5.20;99.90;;;;;;4967264;28;20038;-77
2022/11/30 07:12:50;;;;;;;140.68;44.20;;;5.20;99.90;;;;;;4983835;28;20351;-78
2022/11/30 07:15:16;;;;;;;136.30;46.00;;;5.20;99.90;;;;;;4993489;28;20034;-77
2022/11/30 07:17:42;;;;;;;154.73;46.10;;;5.20;99.90;;;;;;4978711;28;20069;-77
2022/11/30 07:20:08;;;;;;;126.68;44.30;;;5.20;99.90;;;;;;4977761;28;20069;-77
2022/11/30 07:22:33;;;;;;;153.10;46.10;;;5.20;99.90;;;;;;4977347;28;20064;-80
2022/11/30 07:27:43;;;;;;;145.10;44.95;;;5.20;99.90;;;;;;4995457;28;20479;-80
2022/11/30 07:30:09;;;;;;;125.60;42.90;;;5.30;99.90;;;;;;4978464;28;20480;-80
2022/11/30 07:32:35;;;;;;;130.18;42.92;;;5.30;99.90;;;;;;4977036;28;20077;-80
2022/11/30 07:35:00;;;;;;;121.82;45.70;;;5.30;99.90;;;;;;4989550;28;20077;-79
2022/11/30 07:37:26;;;;;;;105.32;43.50;;;5.30;99.90;;;;;;4979598;28;20046;-80
2022/11/30 07:39:51;;;;;;;113.90;43.53;;;5.30;99.90;;;;;;4995109;28;20034;-80
2022/11/30 07:42:17;;;;;;;112.50;44.67;;;5.30;99.90;;;;;;4986347;28;20046;-78
2022/11/30 07:44:43;;;;;;;138.57;45.38;;;5.30;99.90;;;;;;4994534;28;20062;-77
2022/11/30 07:47:08;;;;;;;153.30;44.33;;;5.40;99.90;;;;;;4990335;28;20109;-78
2022/11/30 07:49:34;;;;;;;117.57;44.42;;;5.40;99.90;;;;;;4992415;28;20034;-78
2022/11/30 07:51:59;;;;;;;162.82;45.85;;;5.40;99.90;;;;;;4994754;28;20507;-77
2022/11/30 07:54:25;;;;;;;157.35;44.88;;;5.40;99.90;;;;;;4977141;28;20081;-77
2022/11/30 07:56:51;;;;;;;137.77;45.78;;;5.40;99.90;;;;;;4976610;28;20040;-78
2022/11/30 07:59:16;;;;;;;125.07;45.75;;;5.40;99.90;;;;;;4994578;28;20069;-77
2022/11/30 08:01:42;;;;;;;87.07;42.03;;;5.50;99.90;;;;;;4994848;28;20482;-77
2022/11/30 08:04:07;;;;;;;81.88;41.60;;;5.50;99.90;;;;;;4977551;28;20034;-77
2022/11/30 08:06:33;;;;;;;123.13;42.90;;;5.50;99.90;;;;;;4986014;28;20408;-77
2022/11/30 08:09:02;;;;;;;75.60;40.25;;;5.50;99.90;;;;;;4972273;28;20410;-78
2022/11/30 08:11:31;;;;;;;104.25;43.15;;;5.50;99.90;;;;;;4990514;28;20065;-78
2022/11/30 08:13:57;;;;;;;81.78;42.13;;;5.50;99.90;;;;;;4985527;28;20089;-78
2022/11/30 08:16:25;;;;;;;110.43;41.90;;;5.60;99.90;;;;;;4993545;28;20065;-77
2022/11/30 08:18:51;;;;;;;85.07;40.95;;;5.60;99.90;;;;;;4994103;28;20046;-77
2022/11/30 08:21:19;;;;;;;83.63;40.78;;;5.60;99.90;;;;;;4994455;28;20183;-77
2022/11/30 08:23:48;;;;;;;100.47;42.20;;;5.60;99.90;;;;;;4993645;28;20507;-77
2022/11/30 08:26:16;;;;;;;104.78;42.80;;;5.60;99.90;;;;;;4995176;28;20113;-78
2022/11/30 08:28:43;;;;;;;99.50;41.50;;;5.60;99.90;;;;;;4992972;28;20052;-75
2022/11/30 08:31:12;;;;;;;87.80;41.20;;;5.70;99.90;;;;;;4994373;28;20116;-78
2022/11/30 08:33:38;;;;;;;124.75;42.08;;;5.70;99.90;;;;;;4993215;28;20045;-80
2022/11/30 08:36:08;;;;;;;108.63;41.45;;;5.80;99.90;;;;;;4971577;28;20503;-77
2022/11/30 08:38:35;;;;;;;86.22;40.85;;;5.80;99.90;;;;;;4988295;28;20037;-78
2022/11/30 08:41:01;;;;;;;128.55;42.30;;;5.80;99.90;;;;;;4990817;28;20041;-77
2022/11/30 08:43:27;;;;;;;120.45;42.88;;;5.80;99.90;;;;;;4970237;28;20030;-77
2022/11/30 08:45:53;;;;;;;82.75;40.63;;;5.80;99.90;;;;;;4971519;28;20041;-77
2022/11/30 08:48:18;;;;;;;89.15;40.00;;;5.90;99.90;;;;;;4985521;28;20045;-78
2022/11/30 08:50:44;;;;;;;90.05;39.10;;;5.90;99.90;;;;;;4981472;28;20040;-77
2022/11/30 08:53:10;;;;;;;93.78;41.05;;;5.90;99.90;;;;;;4986923;28;20396;-78
2022/11/30 08:55:35;;;;;;;108.32;41.08;;;5.90;99.90;;;;;;4989766;28;20099;-77
2022/11/30 08:58:01;;;;;;;72.72;37.42;;;6.00;99.90;;;;;;4984015;28;20037;-79
2022/11/30 09:00:26;;;;;;;80.22;38.47;;;6.00;99.90;;;;;;4990436;28;20053;-77
2022/11/30 09:02:52;;;;;;;88.57;40.97;;;6.00;99.90;;;;;;4994124;28;20037;-77
2022/11/30 09:05:18;;;;;;;70.55;37.15;;;6.10;99.90;;;;;;4995043;28;20088;-77
2022/11/30 09:07:43;;;;;;;68.07;36.78;;;6.10;99.90;;;;;;4997429;28;20033;-77
2022/11/30 09:10:09;;;;;;;77.38;38.08;;;6.10;99.90;;;;;;4998034;28;20037;-77
2022/11/30 09:12:39;;;;;;;73.15;37.20;;;6.10;99.90;;;;;;4995193;28;20061;-77
2022/11/30 09:15:06;;;;;;;67.85;36.30;;;6.10;99.90;;;;;;4995091;28;20061;-77
2022/11/30 09:17:32;;;;;;;82.30;38.15;;;6.20;99.90;;;;;;4997425;28;20552;-77
2022/11/30 09:19:58;;;;;;;62.50;35.05;;;6.20;99.90;;;;;;4997698;28;20519;-77
2022/11/30 09:22:24;;;;;;;71.90;34.88;;;6.20;99.90;;;;;;4996894;28;20034;-77
2022/11/30 09:24:50;;;;;;;72.07;34.50;;;6.20;99.90;;;;;;4990132;28;20026;-77
2022/11/30 09:27:16;;;;;;;61.65;34.53;;;6.20;99.90;;;;;;4997357;28;20076;-77
2022/11/30 09:29:41;;;;;;;62.90;34.65;;;6.20;99.90;;;;;;4997703;28;20127;-78
2022/11/30 09:32:07;;;;;;;59.33;32.83;;;6.20;99.90;;;;;;4996711;28;20399;-77
2022/11/30 09:34:33;;;;;;;58.10;33.50;;;6.30;99.90;;;;;;4997409;28;20034;-77
2022/11/30 09:36:58;;;;;;;59.72;32.63;;;6.30;99.90;;;;;;4997102;28;20042;-77
2022/11/30 09:39:24;;;;;;;54.80;32.13;;;6.30;99.90;;;;;;4996769;28;20133;-77
2022/11/30 09:42:20;;;;;;;50.15;30.77;;;6.30;99.90;;;;;;4997258;28;20488;-77
2022/11/30 09:45:12;;;;;;;58.97;32.45;;;6.30;99.90;;;;;;4971038;28;20053;-78
2022/11/30 09:48:18;;;;;;;55.35;32.00;;;6.40;99.90;;;;;;4996849;28;20046;-77
2022/11/30 09:50:46;;;;;;;52.45;30.88;;;6.40;99.90;;;;;;4997154;28;20549;-78
2022/11/30 09:53:40;;;;;;;53.42;30.65;;;6.50;99.90;;;;;;4997283;28;20052;-78
2022/11/30 09:56:19;;;;;;;46.78;29.98;;;6.50;99.90;;;;;;5017854;22;20077;-75
2022/11/30 09:58:50;;;;;;;53.92;31.63;;;6.50;99.90;;;;;;4984518;28;20408;-75
2022/11/30 10:01:18;;;;;;;53.67;31.20;;;6.60;99.90;;;;;;4978038;28;20100;-78
2022/11/30 10:03:45;;;;;;;42.92;27.67;;;6.70;99.90;;;;;;4993696;28;20093;-77
2022/11/30 10:06:18;;;;;;;48.25;27.90;;;6.70;99.90;;;;;;4981690;28;20074;-78
2022/11/30 10:08:43;;;;;;;;;;;6.70;99.90;;;;;;4993941;28;20049;-78
2022/11/30 10:11:44;;;;;;;37.55;25.17;;;6.70;99.90;;;;;;4961892;28;20363;-78
2022/11/30 10:14:26;;;;;;;34.22;24.65;;;6.70;99.90;;;;;;4977433;28;20042;-78
2022/11/30 10:16:52;;;;;;;35.73;24.33;;;6.70;99.90;;;;;;4985296;28;20105;-77
2022/11/30 10:19:33;;;;;;;29.67;22.75;;;6.70;99.90;;;;;;4973888;28;20149;-78
2022/11/30 10:22:37;;;;;;;26.80;21.30;;;6.80;99.90;;;;;;4996932;28;20080;-78
2022/11/30 10:25:20;;;;;;;24.25;18.77;;;6.70;99.90;;;;;;4986773;28;20050;-78
2022/11/30 10:27:50;;;;;;;27.43;22.00;;;6.70;99.90;;;;;;4988717;28;20121;-78
2022/11/30 10:30:23;;;;;;;25.52;20.13;;;6.70;99.90;;;;;;4981005;28;20399;-77
2022/11/30 10:32:59;;;;;;;24.38;19.77;;;6.70;99.90;;;;;;5001997;28;20047;-78
2022/11/30 10:35:30;;;;;;;25.92;20.48;;;6.70;99.90;;;;;;5005703;28;20041;-78
2022/11/30 10:38:08;;;;;;;26.80;21.55;;;6.70;99.90;;;;;;4980832;28;20038;-78
2022/11/30 10:40:44;;;;;;;27.80;22.17;;;6.70;99.90;;;;;;4963165;28;20558;-77
2022/11/30 10:43:37;;;;;;;28.60;21.80;;;6.70;99.90;;;;;;4961347;28;20046;-78
2022/11/30 10:46:04;;;;;;;28.27;21.92;;;6.80;99.90;;;;;;4982882;28;20045;-77
2022/11/30 10:48:55;;;;;;;24.55;19.80;;;6.80;99.90;;;;;;4971398;28;20033;-78
2022/11/30 10:51:24;;;;;;;22.92;19.17;;;6.80;99.90;;;;;;4961535;28;20528;-78
2022/11/30 10:53:50;;;;;;;22.27;19.25;;;6.80;99.90;;;;;;4961473;28;20042;-78
2022/11/30 10:56:15;;;;;;;22.13;18.17;;;6.80;99.90;;;;;;4984192;28;20623;-77
2022/11/30 10:58:44;;;;;;;19.90;17.77;;;6.80;99.90;;;;;;4985751;28;20052;-77
2022/11/30 11:01:31;;;;;;;18.40;16.35;;;6.80;99.90;;;;;;4973369;28;20046;-78
2022/11/30 11:04:23;;;;;;;19.70;17.60;;;6.80;99.90;;;;;;4986563;28;20038;-78
2022/11/30 11:07:01;;;;;;;18.90;16.90;;;6.70;99.90;;;;;;4994233;28;20041;-78
2022/11/30 11:09:41;;;;;;;19.67;17.58;;;6.80;99.90;;;;;;4978481;28;20424;-77
2022/11/30 11:12:14;;;;;;;20.20;17.30;;;6.80;99.90;;;;;;5010148;28;20096;-78
2022/11/30 11:14:41;;;;;;;20.38;18.13;;;6.80;99.90;;;;;;4967692;28;20049;-77
2022/11/30 11:17:21;;;;;;;20.50;18.33;;;6.80;99.90;;;;;;4986847;28;20073;-77
2022/11/30 11:19:48;;;;;;;20.38;18.27;;;6.80;99.90;;;;;;4995886;28;20037;-77
2022/11/30 11:22:20;;;;;;;20.75;18.58;;;6.80;99.90;;;;;;4985021;28;20030;-78
2022/11/30 11:25:05;;;;;;;22.05;19.65;;;6.80;99.90;;;;;;4978713;28;20088;-77
2022/11/30 11:27:34;;;;;;;20.90;18.65;;;6.80;99.90;;;;;;4981297;28;20382;-78
2022/11/30 11:30:16;;;;;;;20.67;18.35;;;6.80;99.90;;;;;;4990267;28;20038;-77
2022/11/30 11:33:15;;;;;;;20.63;18.38;;;6.80;99.90;;;;;;5000879;28;20049;-78
2022/11/30 11:36:07;;;;;;;19.30;17.30;;;6.90;99.90;;;;;;5017543;28;20088;-77
2022/11/30 11:38:41;;;;;;;21.33;19.02;;;6.90;99.90;;;;;;4996795;28;20089;-77
2022/11/30 11:41:13;;;;;;;22.67;20.27;;;6.90;99.90;;;;;;4987004;28;20045;-77
2022/11/30 11:44:07;;;;;;;22.38;19.98;;;7.00;99.90;;;;;;4995160;28;20053;-77
2022/11/30 11:46:52;;;;;;;23.38;21.00;;;7.00;99.90;;;;;;4976747;28;20033;-77
2022/11/30 11:49:23;;;;;;;21.95;19.65;;;7.00;99.90;;;;;;4990917;28;20069;-77
2022/11/30 11:52:03;;;;;;;22.85;19.52;;;7.00;99.90;;;;;;4984884;28;20050;-77
2022/11/30 11:54:53;;;;;;;20.77;18.67;;;7.00;99.90;;;;;;4959956;28;20046;-77
2022/11/30 11:57:24;;;;;;;21.50;19.30;;;7.00;99.90;;;;;;4997088;28;20081;-77
2022/11/30 11:59:55;;;;;;;21.27;19.08;;;7.00;99.90;;;;;;4979814;28;20034;-77
2022/11/30 12:02:45;;;;;;;21.85;19.50;;;7.00;99.90;;;;;;5018071;28;20046;-77
2022/11/30 12:05:38;;;;;;;22.75;20.35;;;7.00;99.90;;;;;;5001866;28;20107;-77
2022/11/30 12:08:25;;;;;;;22.52;20.25;;;7.00;99.90;;;;;;4980410;28;20053;-77
2022/11/30 12:11:19;;;;;;;23.13;20.65;;;7.00;99.90;;;;;;5007572;28;20045;-77
2022/11/30 12:13:45;;;;;;;21.88;19.42;;;7.00;99.90;;;;;;4984824;28;20396;-77
2022/11/30 12:16:36;;;;;;;21.85;18.98;;;7.10;99.90;;;;;;4984076;28;20081;-78
2022/11/30 12:19:18;;;;;;;20.50;18.38;;;7.10;99.90;;;;;;4984430;28;20045;-77
2022/11/30 12:22:07;;;;;;;21.23;18.42;;;7.10;99.90;;;;;;4987586;28;20048;-78
2022/11/30 12:24:36;;;;;;;22.75;20.02;;;7.00;99.90;;;;;;4975930;28;20041;-76
2022/11/30 12:27:29;;;;;;;22.95;19.77;;;7.00;99.90;;;;;;4992961;28;20034;-77
2022/11/30 12:30:10;;;;;;;22.58;19.90;;;7.00;99.90;;;;;;4993480;28;20468;-77
2022/11/30 12:32:54;;;;;;;24.42;20.77;;;7.00;99.90;;;;;;4990834;28;20096;-77
2022/11/30 12:35:31;;;;;;;23.92;19.42;;;6.90;99.90;;;;;;4990967;28;20456;-77
2022/11/30 12:38:33;;;;;;;22.58;19.95;;;6.90;99.90;;;;;;4993557;28;20048;-77
2022/11/30 12:41:11;;;;;;;24.85;20.88;;;6.90;99.90;;;;;;4992154;28;20041;-77
2022/11/30 12:44:05;;;;;;;23.08;20.08;;;6.90;99.90;;;;;;4986524;28;20114;-78
2022/11/30 12:46:55;;;;;;;25.70;21.60;;;6.90;99.90;;;;;;4991742;28;20052;-78
2022/11/30 12:49:44;;;;;;;24.98;21.75;;;6.80;99.90;;;;;;4991542;28;20088;-78
2022/11/30 12:52:32;;;;;;;30.13;21.23;;;6.80;99.90;;;;;;4963075;28;20041;-79